Latest Weather Observations for Golden Grove

IDW60801

Issued at 7:33 am WST Sunday 28 November 2021 (issued every 10 minutes, with the page automatically refreshed every 10 minutes)

About weather observations | Map of weather stations | Latest weather observations for WA | Other Formats
Station Details ID: 507017 Name: GOLDEN GROVE Lat: -28.76 Lon: 116.97 Height: 356.3 m
Data from the previous 72 hours. | See also: Recent months for locations in Western Australia
Date/Time
WST
Temp
°C
App
Temp
°C
Dew
Point
°C
Rel
Hum
%
Delta-T
°C
Wind Press
QNH
hPa
Press
MSL
hPa
Rain since
9am
mm
Dir  Spd
km/h
Gust
km/h
Spd
kts
Gust
kts
28/07:30am 28.5 22.4 2.7 19 13.0 NNE 24 30 13 16 1017.3 1015.5 0.0
28/07:00am 27.5 21.4 2.6 20 12.4 NNE 24 35 13 19 1017.0 1015.2 0.0
28/06:30am 26.4 20.6 2.3 21 11.9 NNE 22 30 12 16 1016.6 1014.8 0.0
28/06:00am 25.2 19.3 2.0 22 11.3 NNE 22 30 12 16 1016.4 1014.6 0.0
28/05:30am 23.3 19.1 1.6 24 10.3 NE 13 19 7 10 1016.2 1014.4 0.0
28/05:00am 22.8 18.5 1.2 24 10.2 NE 13 20 7 11 1015.9 1014.2 0.0
28/04:30am 21.9 18.4 1.0 25 9.7 ENE 9 13 5 7 1015.6 1013.9 0.0
28/04:00am 22.1 18.2 1.2 25 9.8 E 11 15 6 8 1015.3 1013.6 0.0
28/03:30am 21.6 17.3 0.8 25 9.6 E 13 15 7 8 1015.1 1013.3 0.0
28/03:00am 22.9 19.4 1.3 24 10.2 ENE 9 13 5 7 1015.0 1013.2 0.0
28/02:30am 22.8 18.9 1.2 24 10.2 ENE 11 13 6 7 1014.9 1013.1 0.0
28/02:00am 22.7 18.8 1.1 24 10.1 E 11 13 6 7 1014.9 1013.1 0.0
28/01:30am 23.0 19.5 1.4 24 10.2 ESE 9 13 5 7 1014.9 1013.1 0.0
28/01:00am 23.1 19.6 1.5 24 10.3 E 9 13 5 7 1014.9 1013.1 0.0
28/12:30am 23.1 20.0 1.5 24 10.3 E 7 9 4 5 1015.1 1013.3 0.0
28/12:00am 23.8 20.2 0.8 22 10.8 E 9 9 5 5 1015.2 1013.4 0.0
 
Date/Time
WST
Temp
°C
App
Temp
°C
Dew
Point
°C
Rel
Hum
%
Delta-T
°C
Wind Press
QNH
hPa
Press
MSL
hPa
Rain since
9am
mm
Dir  Spd
km/h
Gust
km/h
Spd
kts
Gust
kts
27/11:30pm 24.8 20.9 1.0 21 11.3 ENE 11 13 6 7 1015.4 1013.7 0.0
27/11:00pm 25.4 21.8 0.8 20 11.7 NE 9 11 5 6 1015.6 1013.9 0.0
27/10:30pm 25.0 21.8 0.5 20 11.6 ENE 7 11 4 6 1015.9 1014.2 0.0
27/10:00pm 26.0 22.0 0.6 19 12.1 E 11 13 6 7 1015.9 1014.2 0.0
27/09:30pm 26.2 22.1 0.0 18 12.4 ESE 11 11 6 6 1015.9 1014.2 0.0
27/09:00pm 26.9 22.8 -0.2 17 12.8 ESE 11 13 6 7 1015.7 1014.0 0.0
27/08:30pm 27.3 23.2 0.1 17 13.0 ESE 11 13 6 7 1015.6 1013.9 0.0
27/08:00pm 28.7 24.6 -0.5 15 13.9 SE 11 13 6 7 1015.4 1013.7 0.0
27/07:30pm 30.5 26.4 0.0 14 14.9 ESE 11 11 6 6 1015.1 1013.3 0.0
27/07:00pm 32.4 27.9 -0.6 12 16.1 ESE 13 17 7 9 1014.8 1013.0 0.0
27/06:30pm 33.9 29.7 -0.7 11 17.0 ESE 11 17 6 9 1014.5 1012.7 0.0
27/06:00pm 34.2 29.3 -0.4 11 17.2 ESE 15 26 8 14 1014.3 1012.5 0.0
27/05:30pm 34.4 29.1 -0.3 11 17.3 ESE 17 24 9 13 1014.1 1012.3 0.0
27/05:00pm 35.3 30.0 -0.9 10 17.9 ESE 17 24 9 13 1014.0 1012.2 0.0
27/04:30pm 35.1 29.5 0.2 11 17.6 SE 19 26 10 14 1013.9 1012.1 0.0
27/04:00pm 35.5 31.3 -0.8 10 18.0 SE 11 20 6 11 1014.1 1012.3 0.0
27/03:30pm 35.3 30.3 -0.9 10 17.9 ESE 15 24 8 13 1014.3 1012.5 0.0
27/03:01pm 35.1 30.3 0.2 11 17.6 NNE 15 54 8 29 1014.4 1012.6 0.0
27/03:00pm 35.0 30.8 1.4 12 17.2 N 13 54 7 29 1014.1 1012.3 0.0
27/02:30pm 34.7 30.0 1.1 12 17.1 ESE 15 28 8 15 1014.7 1012.9 0.0
27/02:00pm 34.9 30.3 1.3 12 17.2 NE 15 32 8 17 1015.0 1013.2 0.0
27/01:30pm 34.6 29.2 1.1 12 17.1 NE 19 32 10 17 1015.4 1013.7 0.0
27/01:00pm 34.2 28.3 1.9 13 16.6 ENE 22 39 12 21 1015.8 1014.1 0.0
27/12:30pm 33.4 30.1 2.3 14 16.0 SE 9 24 5 13 1016.4 1014.6 0.0
27/12:00pm 33.2 27.4 2.1 14 15.9 ESE 22 33 12 18 1016.8 1015.0 0.0
27/11:30am 33.2 27.4 2.1 14 16.0 E 22 35 12 19 1017.3 1015.5 0.0
27/11:00am 32.7 27.5 2.7 15 15.5 ENE 19 32 10 17 1017.8 1016.1 0.0
27/10:30am 31.9 26.6 3.0 16 14.9 NE 20 39 11 21 1018.1 1016.4 0.0
27/10:00am 31.7 26.4 2.8 16 14.8 NE 20 30 11 16 1018.4 1016.7 0.0
27/09:30am 30.8 25.5 3.0 17 14.3 NE 20 30 11 16 1018.6 1016.9 0.0
27/09:00am 30.2 23.8 3.3 18 13.8 NNE 26 35 14 19 1018.8 1017.1 0.0
27/08:30am 29.2 23.2 3.2 19 13.3 NNE 24 33 13 18 1019.0 1017.3 0.0
27/08:00am 28.0 21.6 3.0 20 12.6 NE 26 35 14 19 1019.0 1017.3 0.0
27/07:30am 26.9 20.4 2.7 21 12.1 NE 26 35 14 19 1018.9 1017.2 0.0
27/07:00am 25.6 19.5 2.9 23 11.2 NE 24 33 13 18 1018.9 1017.2 0.0
27/06:30am 22.2 18.0 1.8 26 9.7 E 13 19 7 10 1018.7 1017.0 0.0
27/06:00am 21.0 17.1 1.3 27 9.2 E 11 13 6 7 1018.3 1016.6 0.0
27/05:30am 20.0 16.1 1.0 28 8.7 ESE 11 13 6 7 1018.1 1016.4 0.0
27/05:00am 20.3 16.0 0.7 27 9.0 ESE 13 15 7 8 1017.7 1015.9 0.0
27/04:30am 20.7 16.3 0.5 26 9.2 ESE 13 17 7 9 1017.3 1015.5 0.0
27/04:00am 21.0 16.7 0.8 26 9.3 ESE 13 17 7 9 1017.0 1015.2 0.0
27/03:30am 21.5 17.2 0.7 25 9.6 ESE 13 15 7 8 1016.7 1014.9 0.0
27/03:00am 22.0 17.6 0.5 24 9.9 ESE 13 15 7 8 1016.6 1014.8 0.0
27/02:30am 22.9 18.6 0.7 23 10.4 ESE 13 24 7 13 1016.4 1014.6 0.0
27/02:00am 22.9 18.9 0.7 23 10.4 ESE 11 13 6 7 1016.4 1014.6 0.0
27/01:30am 22.9 18.9 0.7 23 10.4 E 11 15 6 8 1016.3 1014.5 0.0
27/01:00am 23.3 18.9 0.4 22 10.7 ESE 13 15 7 8 1016.4 1014.6 0.0
27/12:30am 23.6 19.6 0.7 22 10.8 ESE 11 15 6 8 1016.6 1014.8 0.0
27/12:00am 24.1 20.1 0.4 21 11.1 ESE 11 13 6 7 1016.5 1014.7 0.0
 
Date/Time
WST
Temp
°C
App
Temp
°C
Dew
Point
°C
Rel
Hum
%
Delta-T
°C
Wind Press
QNH
hPa
Press
MSL
hPa
Rain since
9am
mm
Dir  Spd
km/h
Gust
km/h
Spd
kts
Gust
kts
26/11:30pm 24.0 19.7 1.0 22 10.9 ESE 13 15 7 8 1016.7 1014.9 0.0
26/11:00pm 24.1 20.6 1.1 22 10.9 ESE 9 11 5 6 1016.7 1014.9 0.0
26/10:30pm 25.3 21.1 1.4 21 11.5 SE 13 15 7 8 1016.9 1015.1 0.0
26/10:00pm 25.5 21.6 0.9 20 11.7 SE 11 13 6 7 1016.7 1014.9 0.0
26/09:30pm 26.4 22.1 0.9 19 12.3 SE 13 15 7 8 1016.7 1014.9 0.0
26/09:00pm 27.1 22.8 0.8 18 12.7 SE 13 15 7 8 1016.4 1014.6 0.0
26/08:30pm 27.5 23.6 1.1 18 12.8 SE 11 13 6 7 1016.2 1014.4 0.0
26/08:00pm 28.3 24.4 0.9 17 13.3 ESE 11 13 6 7 1015.8 1014.1 0.0
26/07:30pm 30.4 26.5 0.9 15 14.6 ESE 11 13 6 7 1015.6 1013.9 0.0
26/07:00pm 31.7 27.8 1.0 14 15.3 ESE 11 15 6 8 1015.3 1013.6 0.0
26/06:30pm 33.1 28.8 1.0 13 16.2 ESE 13 20 7 11 1015.1 1013.3 0.0
26/06:00pm 33.9 28.8 0.5 12 16.8 ESE 17 24 9 13 1014.9 1013.1 0.0
26/05:30pm 34.1 29.0 0.7 12 16.9 SE 17 22 9 12 1014.7 1012.9 0.0
26/05:00pm 34.5 31.0 1.0 12 17.0 ESE 9 22 5 12 1014.6 1012.8 0.0
26/04:30pm 34.8 30.1 1.2 12 17.2 E 15 30 8 16 1014.6 1012.8 0.0
26/04:00pm 34.7 29.1 1.1 12 17.1 ESE 20 32 11 17 1014.8 1013.0 0.0
26/03:30pm 34.5 29.4 1.0 12 17.0 E 17 30 9 16 1015.1 1013.3 0.0
26/03:00pm 34.6 28.6 1.1 12 17.1 E 22 35 12 19 1015.2 1013.4 0.0
26/02:30pm 34.6 29.2 1.1 12 17.1 SE 19 35 10 19 1015.5 1013.8 0.0
26/02:00pm 34.5 29.6 2.1 13 16.8 SE 17 32 9 17 1015.7 1014.0 0.0
26/01:30pm 34.5 29.2 2.1 13 16.8 ENE 19 32 10 17 1016.2 1014.4 0.0
26/01:00pm 33.9 28.9 1.6 13 16.5 ENE 17 28 9 15 1016.4 1014.6 0.0
26/12:30pm 33.4 28.5 2.3 14 16.0 ESE 17 26 9 14 1016.9 1015.1 0.0
26/12:00pm 33.4 27.6 2.3 14 16.0 E 22 35 12 19 1017.4 1015.6 0.0
26/11:30am 32.5 27.2 1.6 14 15.7 ENE 19 35 10 19 1017.7 1015.9 0.0
26/11:00am 32.6 27.3 1.7 14 15.7 E 19 32 10 17 1018.0 1016.3 0.0
26/10:30am 31.6 26.3 1.8 15 15.1 ENE 19 32 10 17 1018.3 1016.6 0.0
26/10:00am 30.5 25.2 1.9 16 14.4 NE 19 26 10 14 1018.5 1016.8 0.0
26/09:30am 30.0 24.6 2.3 17 14.0 NNE 20 28 11 15 1018.6 1016.9 0.0
26/09:00am 29.6 24.6 3.6 19 13.4 NNE 19 26 10 14 1018.8 1017.1 0.0
26/08:30am 28.3 22.3 3.2 20 12.7 NE 24 30 13 16 1019.0 1017.3 0.0
26/08:00am 27.3 21.7 3.7 22 12.0 NNE 22 30 12 16 1019.2 1017.4 0.0
26/07:30am 26.0 20.4 3.3 23 11.4 NE 22 30 12 16 1018.9 1017.2 0.0
26/07:00am 24.6 20.0 1.5 22 11.1 ENE 15 20 8 11 1018.7 1017.0 0.0
26/06:30am 21.9 17.2 -2.0 20 10.5 ENE 13 17 7 9 1018.4 1016.7 0.0
26/06:00am 20.3 15.9 -2.1 22 9.7 E 11 13 6 7 1018.2 1016.5 0.0
26/05:30am 18.4 13.7 -2.0 25 8.7 ESE 13 13 7 7 1017.8 1016.1 0.0
26/05:00am 18.4 14.1 -2.0 25 8.7 ESE 11 13 6 7 1017.6 1015.8 0.0
26/04:30am 19.0 14.3 -2.0 24 9.0 SE 13 17 7 9 1017.3 1015.5 0.0
26/04:00am 19.4 14.6 -2.2 23 9.2 SE 13 15 7 8 1017.0 1015.2 0.0
26/03:30am 20.0 15.3 -1.7 23 9.4 SE 13 15 7 8 1016.7 1014.9 0.0
26/03:00am 20.7 15.5 -2.4 21 10.0 SE 15 17 8 9 1016.4 1014.6 0.0
26/02:30am 21.1 16.8 -2.0 21 10.1 SE 11 15 6 8 1016.3 1014.5 0.0
26/02:00am 21.6 16.8 -2.3 20 10.4 SE 13 17 7 9 1016.2 1014.4 0.0
26/01:30am 22.1 17.4 -1.9 20 10.6 ESE 13 15 7 8 1016.2 1014.4 0.0
26/01:00am 23.2 18.4 -2.4 18 11.3 E 13 15 7 8 1016.2 1014.4 0.0
26/12:30am 23.5 18.7 -2.2 18 11.4 E 13 19 7 10 1016.3 1014.5 0.0
26/12:00am 23.3 18.5 -2.3 18 11.3 E 13 19 7 10 1016.4 1014.6 0.0
 
Date/Time
WST
Temp
°C
App
Temp
°C
Dew
Point
°C
Rel
Hum
%
Delta-T
°C
Wind Press
QNH
hPa
Press
MSL
hPa
Rain since
9am
mm
Dir  Spd
km/h
Gust
km/h
Spd
kts
Gust
kts
25/11:30pm 23.2 19.2 -2.4 18 11.3 ENE 9 11 5 6 1016.6 1014.8 0.0
25/11:00pm 23.2 19.1 -3.2 17 11.5 ENE 9 11 5 6 1016.8 1015.0 0.0
25/10:30pm 23.9 19.4 -3.4 16 11.9 E 11 11 6 6 1016.9 1015.1 0.0
25/10:00pm 24.5 19.9 -3.8 15 12.3 ESE 11 13 6 7 1017.0 1015.2 0.0
25/09:30pm 25.3 20.3 -4.1 14 12.8 SE 13 13 7 7 1017.0 1015.2 0.0
25/09:00pm 25.9 21.0 -3.6 14 13.0 SE 13 13 7 7 1016.8 1015.0 0.0
25/08:30pm 27.1 22.5 -3.7 13 13.7 SE 11 13 6 7 1016.7 1014.9 0.0
25/08:00pm 27.8 23.2 -4.2 12 14.2 SE 11 13 6 7 1016.3 1014.5 0.0
25/07:30pm 28.5 23.8 -4.8 11 14.7 SE 11 15 6 8 1016.0 1014.3 0.0
25/07:00pm 31.0 26.3 -5.5 9 16.2 SE 11 15 6 8 1015.7 1014.0 0.0
25/06:30pm 32.8 27.3 -5.7 8 17.3 ESE 15 20 8 11 1015.4 1013.7 0.0
25/06:00pm 33.6 27.7 -5.2 8 17.7 ESE 17 26 9 14 1015.1 1013.3 0.0
25/05:30pm 33.9 28.6 -3.4 9 17.6 ESE 15 22 8 12 1014.9 1013.1 0.0
25/05:00pm 34.1 29.6 -3.2 9 17.7 SE 11 20 6 11 1014.7 1012.9 0.0
25/04:30pm 34.3 28.1 -3.1 9 17.8 E 20 30 11 16 1014.7 1012.9 0.0
25/04:00pm 34.2 28.9 -3.2 9 17.7 ENE 15 24 8 13 1014.9 1013.1 0.0
25/03:30pm 34.1 28.5 -3.2 9 17.7 ESE 17 32 9 17 1015.1 1013.3 0.0
25/03:00pm 33.7 27.6 -3.5 9 17.5 E 19 30 10 16 1015.3 1013.6 0.0
25/02:30pm 34.0 27.8 -3.3 9 17.6 SE 20 37 11 20 1015.4 1013.7 0.0
25/02:00pm 33.6 27.1 -2.2 10 17.2 ESE 22 43 12 23 1015.7 1014.0 0.0
25/01:30pm 33.7 27.8 -0.8 11 16.9 E 20 41 11 22 1015.9 1014.2 0.0
25/01:00pm 32.7 26.9 -1.6 11 16.5 ENE 19 32 10 17 1016.5 1014.7 0.0
25/12:30pm 32.5 26.7 -1.7 11 16.4 E 19 28 10 15 1016.9 1015.1 0.0
25/12:00pm 31.9 26.7 0.1 13 15.6 ENE 17 32 9 17 1017.4 1015.6 0.0
25/11:30am 31.1 25.4 -0.5 13 15.3 E 19 30 10 16 1017.8 1016.1 0.0
25/11:00am 30.7 24.9 0.2 14 14.9 E 20 32 11 17 1018.2 1016.5 0.0
25/10:30am 30.1 24.4 0.6 15 14.5 ENE 20 35 11 19 1018.5 1016.8 0.0
25/10:00am 29.6 23.5 0.2 15 14.3 NE 22 33 12 18 1018.8 1017.1 0.0
25/09:30am 29.1 23.0 0.7 16 13.9 NE 22 35 12 19 1018.8 1017.1 0.0
25/09:00am 28.5 22.1 1.1 17 13.4 NE 24 39 13 21 1018.8 1017.1 0.0
25/08:30am 27.4 21.9 1.8 19 12.6 NE 20 30 11 16 1018.9 1017.2 0.0
25/08:00am 26.7 20.8 1.9 20 12.1 NE 22 33 12 18 1019.0 1017.3 0.0

Other formats

Comma delimited format used in spreadsheet applications
http://www.bom.gov.au/fwo/IDW60801/IDW60801.99401.axf

JavaScript Object Notation format (JSON) in row-major order
http://www.bom.gov.au/fwo/IDW60801/IDW60801.99401.json

Data quality

Most of these data are generated automatically and are frequently updated. Quality checks on data are not normally performed. It is possible for incorrect values to appear. Refer to information at About Latest Weather Observations and please check the disclaimer before using these data.